Archival Weather

Aeroparque Jorge Newbery

Buenos Aires, Argentina (SABE)

Report from: Sunday, March 19, 2023 4:00 AM -03
Current time: Tuesday, February 27, 2024 7:17 AM -03

Current weather – Weather history – Daily summaries
Weather forecast

Temperature25.0°C (77.0°F)
Dew point23.0°C (73.4°F)
Winds 4 kts (2.1 m/s, 4.6 mph) East-Northeast (70°)
Clouds Sky clear
Altimeter29.85 in.Hg (1011 mB)
Relative humidity89 %
Density altitude1,611 ft. (491 m)
Remarks Ceiling and visibility OK
No significant changes expected in the next two hours
Flight conditions Visual Meteorological Conditions
Raw dataSABE 190700Z 07004KT CAVOK 25/23 Q1011 NOSIG RMK PP000
An error has occurred. This application may no longer respond until reloaded. Reload 🗙